createdAt,value
2018-09-17T00:01:59.948Z,17.86
2018-09-17T00:04:34.870Z,17.86
2018-09-17T00:07:09.556Z,17.84
2018-09-17T00:09:43.983Z,17.85
2018-09-17T00:12:18.436Z,17.84
2018-09-17T00:14:52.791Z,17.85
2018-09-17T00:17:27.183Z,17.83
2018-09-17T00:20:01.601Z,17.82
2018-09-17T00:22:35.873Z,17.77
2018-09-17T00:25:10.775Z,17.79
2018-09-17T00:27:45.112Z,17.78
2018-09-17T00:30:20.184Z,17.78
2018-09-17T00:32:54.771Z,17.78
2018-09-17T00:35:29.037Z,17.77
2018-09-17T00:38:03.847Z,17.76
2018-09-17T00:40:38.798Z,17.75
2018-09-17T00:43:13.265Z,17.71
2018-09-17T00:45:48.275Z,17.71
2018-09-17T00:48:22.904Z,17.66
2018-09-17T00:50:57.613Z,17.66
2018-09-17T00:53:33.239Z,17.61
2018-09-17T00:56:07.860Z,17.63
2018-09-17T00:58:42.115Z,17.64
2018-09-17T01:01:16.587Z,17.61
2018-09-17T01:03:51.320Z,17.62
2018-09-17T01:06:26.231Z,17.59
2018-09-17T01:09:01.460Z,17.61
2018-09-17T01:11:36.051Z,17.57
2018-09-17T01:14:10.939Z,17.53
2018-09-17T01:16:45.615Z,17.51
2018-09-17T01:19:20.240Z,17.48
2018-09-17T01:21:54.776Z,17.45
2018-09-17T01:24:29.524Z,17.42
2018-09-17T01:27:04.432Z,17.37
2018-09-17T01:29:39.015Z,17.30
2018-09-17T01:32:13.702Z,17.29
2018-09-17T01:34:48.099Z,17.31
2018-09-17T01:37:22.367Z,17.23
2018-09-17T01:39:57.148Z,17.29
2018-09-17T01:42:31.544Z,17.22
2018-09-17T01:45:06.033Z,17.22
2018-09-17T01:47:40.763Z,17.20
2018-09-17T01:50:15.683Z,17.23
2018-09-17T01:52:49.936Z,17.23
2018-09-17T01:55:24.743Z,17.16
2018-09-17T01:57:59.147Z,17.11
2018-09-17T02:00:33.900Z,17.20
2018-09-17T02:03:08.747Z,17.16
2018-09-17T02:05:43.448Z,17.11
2018-09-17T02:08:18.728Z,16.98
2018-09-17T02:10:53.643Z,16.96
2018-09-17T02:13:28.960Z,16.90
2018-09-17T02:16:03.611Z,16.84
2018-09-17T02:18:38.116Z,16.83
2018-09-17T02:21:13.507Z,16.73
2018-09-17T02:23:48.696Z,16.70
2018-09-17T02:26:23.244Z,16.65
2018-09-17T02:28:58.153Z,16.60
2018-09-17T02:31:32.468Z,16.58
2018-09-17T02:34:07.189Z,16.57
2018-09-17T02:36:42.552Z,16.59
2018-09-17T02:39:17.252Z,16.53
2018-09-17T02:41:52.342Z,16.50
2018-09-17T02:44:26.772Z,16.50
2018-09-17T02:47:01.524Z,16.44
2018-09-17T02:49:35.905Z,16.42
2018-09-17T02:52:10.437Z,16.42
2018-09-17T02:54:45.181Z,16.42
2018-09-17T02:57:19.587Z,16.41
2018-09-17T02:59:54.256Z,16.40
2018-09-17T03:02:28.865Z,16.41
2018-09-17T03:05:04.205Z,16.34
2018-09-17T03:07:38.735Z,16.27
2018-09-17T03:10:13.738Z,16.23
2018-09-17T03:12:48.995Z,16.19
2018-09-17T03:15:34.988Z,16.14
2018-09-17T03:18:09.799Z,16.14
2018-09-17T03:20:44.591Z,16.12
2018-09-17T03:23:19.791Z,16.10
2018-09-17T03:25:54.423Z,16.10
2018-09-17T03:28:29.042Z,16.14
2018-09-17T03:31:03.631Z,16.10
2018-09-17T03:33:38.327Z,16.06
2018-09-17T03:36:12.641Z,16.07
2018-09-17T03:38:48.120Z,16.02
2018-09-17T03:41:22.746Z,16.06
2018-09-17T03:43:57.622Z,16.13
2018-09-17T03:46:32.004Z,16.08
2018-09-17T03:49:07.567Z,16.02
2018-09-17T03:51:42.601Z,15.98
2018-09-17T03:54:17.121Z,15.93
2018-09-17T03:56:51.592Z,15.86
2018-09-17T03:59:26.274Z,15.80
2018-09-17T04:02:00.827Z,15.76
2018-09-17T04:04:35.955Z,15.78
2018-09-17T04:07:11.479Z,15.70
2018-09-17T04:09:45.854Z,15.62
2018-09-17T04:12:20.632Z,15.62
2018-09-17T04:14:55.183Z,15.61
2018-09-17T04:17:29.679Z,15.61
2018-09-17T04:20:05.130Z,15.62
2018-09-17T04:22:39.556Z,15.60
2018-09-17T04:25:14.740Z,15.58
2018-09-17T04:27:49.692Z,15.57
2018-09-17T04:30:24.348Z,15.55
2018-09-17T04:32:59.298Z,15.57
2018-09-17T04:35:34.015Z,15.50
2018-09-17T04:38:08.324Z,15.45
2018-09-17T04:40:42.933Z,15.43
2018-09-17T04:43:17.499Z,15.48
2018-09-17T04:45:56.439Z,15.41
2018-09-17T04:48:31.567Z,15.39
2018-09-17T04:51:06.764Z,15.37
2018-09-17T04:53:41.452Z,15.32
2018-09-17T04:56:15.857Z,15.40
2018-09-17T04:58:50.644Z,15.40
2018-09-17T05:01:25.247Z,15.37
2018-09-17T05:03:59.628Z,15.40
2018-09-17T05:06:33.984Z,15.38
2018-09-17T05:09:10.136Z,15.41
2018-09-17T05:11:44.876Z,15.44
2018-09-17T05:14:19.515Z,15.47
2018-09-17T05:16:54.072Z,15.47
2018-09-17T05:19:28.511Z,15.45
2018-09-17T05:22:02.822Z,15.49
2018-09-17T05:24:37.631Z,15.52
2018-09-17T05:27:12.507Z,15.54
2018-09-17T05:29:47.008Z,15.53
2018-09-17T05:32:21.474Z,15.58
2018-09-17T05:34:56.772Z,15.60
2018-09-17T05:37:31.539Z,15.61
2018-09-17T05:40:06.272Z,15.64
2018-09-17T05:42:41.511Z,15.67
2018-09-17T05:45:16.343Z,15.71
2018-09-17T05:47:50.764Z,15.76
2018-09-17T05:50:25.628Z,15.81
2018-09-17T05:53:00.032Z,15.91
2018-09-17T05:55:34.417Z,16.02
2018-09-17T05:58:09.255Z,16.09
2018-09-17T06:00:43.761Z,16.17
2018-09-17T06:03:18.667Z,16.22
2018-09-17T06:05:54.263Z,16.35
2018-09-17T06:08:29.417Z,16.38
2018-09-17T06:11:04.200Z,16.49
2018-09-17T06:13:39.816Z,16.54
2018-09-17T06:16:14.512Z,16.57
2018-09-17T06:18:49.944Z,16.59
2018-09-17T06:21:24.992Z,16.63
2018-09-17T06:23:59.364Z,16.68
2018-09-17T06:26:34.403Z,16.72
2018-09-17T06:29:08.972Z,16.74
2018-09-17T06:31:43.520Z,16.80
2018-09-17T06:34:18.196Z,16.85
2018-09-17T06:36:52.516Z,16.91
2018-09-17T06:39:27.144Z,16.98
2018-09-17T06:42:01.669Z,17.05
2018-09-17T06:44:36.119Z,17.13
2018-09-17T06:47:10.983Z,17.23
2018-09-17T06:49:45.441Z,17.29
2018-09-17T06:52:19.764Z,17.35
2018-09-17T06:54:54.159Z,17.41
2018-09-17T06:57:29.007Z,17.50
2018-09-17T07:00:03.799Z,17.58
2018-09-17T07:02:38.143Z,17.64
2018-09-17T07:05:12.768Z,17.72
2018-09-17T07:07:47.448Z,17.75
2018-09-17T07:10:22.214Z,17.81
2018-09-17T07:12:56.823Z,17.84
2018-09-17T07:15:31.105Z,17.88
2018-09-17T07:18:06.396Z,17.99
2018-09-17T07:20:41.315Z,18.13
2018-09-17T07:23:16.079Z,18.23
2018-09-17T07:25:50.560Z,18.31
2018-09-17T07:28:25.312Z,18.38
2018-09-17T07:30:59.695Z,18.51
2018-09-17T07:33:34.719Z,18.59
2018-09-17T07:36:09.493Z,18.64
2018-09-17T07:38:44.454Z,18.68
2018-09-17T07:41:19.416Z,18.75
2018-09-17T07:43:53.830Z,18.95
2018-09-17T07:46:28.927Z,19.02
2018-09-17T07:49:04.180Z,19.16
2018-09-17T07:51:38.654Z,19.28
2018-09-17T07:54:13.127Z,19.28
2018-09-17T07:56:47.971Z,19.40
2018-09-17T07:59:22.680Z,19.56
2018-09-17T08:01:57.244Z,19.68
2018-09-17T08:04:32.039Z,19.86
2018-09-17T08:07:07.320Z,20.08
2018-09-17T08:09:42.137Z,20.29
2018-09-17T08:12:16.400Z,20.43
2018-09-17T08:14:50.826Z,20.63
2018-09-17T08:17:25.363Z,20.77
2018-09-17T08:19:59.887Z,20.85
2018-09-17T08:22:34.371Z,21.07
2018-09-17T08:25:09.879Z,21.21
2018-09-17T08:27:44.295Z,21.34
2018-09-17T08:30:19.262Z,21.46
2018-09-17T08:32:54.124Z,21.66
2018-09-17T08:35:29.424Z,21.83
2018-09-17T08:38:04.227Z,22.01
2018-09-17T08:40:38.830Z,22.25
2018-09-17T08:43:13.576Z,22.43
2018-09-17T08:45:48.076Z,22.68
2018-09-17T08:48:22.347Z,22.88
2018-09-17T08:50:57.159Z,23.13
2018-09-17T08:53:31.796Z,23.42
2018-09-17T08:56:12.244Z,23.55
2018-09-17T08:58:52.608Z,23.56
2018-09-17T09:01:34.288Z,23.47
2018-09-17T09:04:14.166Z,23.52
2018-09-17T09:06:55.960Z,23.33
2018-09-17T09:09:30.316Z,23.58
2018-09-17T09:12:10.811Z,23.84
2018-09-17T09:14:45.977Z,24.05
2018-09-17T09:17:20.739Z,24.29
2018-09-17T09:19:55.319Z,24.37
2018-09-17T09:22:29.919Z,24.72
2018-09-17T09:25:04.768Z,24.84
2018-09-17T09:27:39.104Z,24.95
2018-09-17T09:30:13.543Z,25.10
2018-09-17T09:32:48.708Z,25.13
2018-09-17T09:35:23.484Z,25.33
2018-09-17T09:37:58.036Z,25.54
2018-09-17T09:40:32.603Z,25.68
2018-09-17T09:43:07.639Z,25.85
2018-09-17T09:45:43.425Z,26.04
2018-09-17T09:48:18.048Z,26.13
2018-09-17T09:50:52.552Z,26.31
2018-09-17T09:53:27.383Z,26.46
2018-09-17T09:56:02.051Z,26.43
2018-09-17T09:58:36.536Z,26.66
2018-09-17T10:01:16.467Z,26.62
2018-09-17T10:03:56.369Z,26.74
2018-09-17T10:06:30.959Z,26.73
2018-09-17T10:09:12.832Z,26.89
2018-09-17T10:11:52.588Z,26.79
2018-09-17T10:14:32.503Z,26.63
2018-09-17T10:18:16.255Z,26.68
2018-09-17T10:20:51.097Z,26.70
2018-09-17T10:23:25.435Z,26.76
2018-09-17T10:26:00.296Z,26.97
2018-09-17T10:28:35.399Z,26.97
2018-09-17T10:31:09.941Z,26.98
2018-09-17T10:33:44.316Z,27.12
2018-09-17T10:36:19.796Z,27.18
2018-09-17T10:38:54.425Z,27.12
2018-09-17T10:41:28.942Z,27.07
2018-09-17T10:44:04.332Z,27.27
2018-09-17T10:46:39.036Z,27.50
2018-09-17T10:49:13.751Z,27.90
2018-09-17T10:51:48.074Z,28.07
2018-09-17T10:54:22.495Z,27.96
2018-09-17T10:56:56.949Z,27.91
2018-09-17T10:59:31.211Z,27.69
2018-09-17T11:02:06.435Z,27.46
2018-09-17T11:04:41.177Z,27.39
2018-09-17T11:07:15.463Z,27.80
2018-09-17T11:09:55.127Z,28.10
2018-09-17T11:12:30.425Z,28.12
2018-09-17T11:15:05.702Z,28.42
2018-09-17T11:17:40.298Z,28.45
2018-09-17T11:20:15.244Z,28.45
2018-09-17T11:22:49.660Z,28.45
2018-09-17T11:25:23.955Z,28.24
2018-09-17T11:27:58.415Z,28.22
2018-09-17T11:30:32.956Z,28.25
2018-09-17T11:33:08.351Z,28.44
2018-09-17T11:35:43.828Z,28.10
2018-09-17T11:38:18.516Z,27.97
2018-09-17T11:40:52.979Z,27.94
2018-09-17T11:43:28.007Z,28.26
2018-09-17T11:46:02.461Z,28.07
2018-09-17T11:48:36.899Z,27.80
2018-09-17T11:51:11.543Z,27.66
2018-09-17T11:53:46.183Z,28.08
2018-09-17T11:56:21.392Z,28.12
2018-09-17T11:58:55.943Z,28.27
2018-09-17T12:01:36.354Z,27.99
2018-09-17T12:04:14.156Z,27.69
2018-09-17T12:06:53.896Z,27.43
2018-09-17T12:09:29.204Z,27.81
2018-09-17T12:12:03.997Z,28.25
2018-09-17T12:14:38.511Z,28.09
2018-09-17T12:17:12.927Z,28.14
2018-09-17T12:19:47.628Z,28.35
2018-09-17T12:22:22.283Z,28.44
2018-09-17T12:24:57.019Z,28.52
2018-09-17T12:27:31.942Z,28.38
2018-09-17T12:30:06.767Z,28.63
2018-09-17T12:32:41.215Z,28.78
2018-09-17T12:35:15.835Z,28.93
2018-09-17T12:37:50.203Z,29.23
2018-09-17T12:40:26.139Z,29.01
2018-09-17T12:43:00.732Z,28.96
2018-09-17T12:45:35.104Z,28.79
2018-09-17T12:48:09.351Z,29.10
2018-09-17T12:50:44.444Z,29.29
2018-09-17T12:53:18.950Z,29.20
2018-09-17T12:55:53.707Z,28.99
2018-09-17T12:58:28.756Z,28.71
2018-09-17T13:01:03.706Z,28.69
2018-09-17T13:03:39.051Z,28.84
2018-09-17T13:06:13.703Z,29.10
2018-09-17T13:08:48.293Z,28.70
2018-09-17T13:11:23.252Z,28.69
2018-09-17T13:13:58.416Z,28.88
2018-09-17T13:16:33.131Z,29.01
2018-09-17T13:19:10.256Z,28.96
2018-09-17T13:21:44.647Z,28.91
2018-09-17T13:24:19.422Z,29.00
2018-09-17T13:26:54.139Z,29.18
2018-09-17T13:29:28.904Z,29.25
2018-09-17T13:32:06.040Z,28.98
2018-09-17T13:34:40.870Z,28.45
2018-09-17T13:37:15.448Z,27.88
2018-09-17T13:39:50.121Z,27.48
2018-09-17T13:42:25.823Z,27.29
2018-09-17T13:45:00.868Z,27.43
2018-09-17T13:47:35.567Z,27.70
2018-09-17T13:50:10.124Z,27.90
2018-09-17T13:52:45.052Z,27.99
2018-09-17T13:55:20.217Z,28.19
2018-09-17T13:57:55.166Z,28.32
2018-09-17T14:00:31.088Z,28.48
2018-09-17T14:03:07.978Z,28.47
2018-09-17T14:05:43.105Z,28.49
2018-09-17T14:08:17.757Z,28.53
2018-09-17T14:10:52.208Z,28.48
2018-09-17T14:13:26.688Z,28.47
2018-09-17T14:16:12.739Z,28.50
2018-09-17T14:18:47.573Z,28.56
2018-09-17T14:21:22.171Z,28.55
2018-09-17T14:23:56.909Z,28.42
2018-09-17T14:26:31.620Z,28.35
2018-09-17T14:29:06.463Z,28.28
2018-09-17T14:31:46.783Z,28.24
2018-09-17T14:34:21.292Z,28.21
2018-09-17T14:36:56.368Z,28.20
2018-09-17T14:39:31.345Z,28.05
2018-09-17T14:42:06.847Z,28.05
2018-09-17T14:44:41.323Z,27.91
2018-09-17T14:47:16.495Z,27.66
2018-09-17T14:49:50.903Z,27.66
2018-09-17T14:52:26.099Z,27.73
2018-09-17T14:55:01.159Z,27.96
2018-09-17T14:57:35.675Z,27.83
2018-09-17T15:00:09.980Z,27.79
2018-09-17T15:02:44.890Z,27.73
2018-09-17T15:05:19.526Z,27.92
2018-09-17T15:07:54.135Z,28.01
2018-09-17T15:10:29.029Z,28.10
2018-09-17T15:13:04.111Z,28.14
2018-09-17T15:15:44.283Z,28.16
2018-09-17T15:18:18.811Z,28.19
2018-09-17T15:20:54.095Z,28.16
2018-09-17T15:23:28.643Z,28.08
2018-09-17T15:26:03.285Z,27.99
2018-09-17T15:28:38.586Z,27.94
2018-09-17T15:31:13.354Z,27.77
2018-09-17T15:33:48.294Z,27.59
2018-09-17T15:36:24.869Z,27.42
2018-09-17T15:38:59.669Z,27.42
2018-09-17T15:41:35.185Z,27.32
2018-09-17T15:44:10.280Z,27.22
2018-09-17T15:46:44.996Z,27.15
2018-09-17T15:49:19.761Z,27.06
2018-09-17T15:51:54.512Z,26.92
2018-09-17T15:54:29.315Z,26.74
2018-09-17T15:57:04.487Z,26.64
2018-09-17T15:59:38.988Z,26.54
2018-09-17T16:02:13.619Z,26.43
2018-09-17T16:04:47.905Z,26.37
2018-09-17T16:07:22.617Z,26.31
2018-09-17T16:09:57.131Z,26.35
2018-09-17T16:12:31.687Z,26.23
2018-09-17T16:15:06.444Z,26.10
2018-09-17T16:17:40.854Z,25.98
2018-09-17T16:20:15.312Z,25.92
2018-09-17T16:22:49.763Z,25.67
2018-09-17T16:25:24.247Z,25.53
2018-09-17T16:27:58.886Z,25.42
2018-09-17T16:30:33.591Z,25.39
2018-09-17T16:33:08.051Z,25.25
2018-09-17T16:35:42.436Z,25.10
2018-09-17T16:38:16.787Z,25.00
2018-09-17T16:40:51.097Z,24.82
2018-09-17T16:43:25.889Z,24.65
2018-09-17T16:46:00.530Z,24.54
2018-09-17T16:48:35.007Z,24.40
2018-09-17T16:51:09.831Z,24.25
2018-09-17T16:53:45.050Z,24.16
2018-09-17T16:56:19.838Z,24.10
2018-09-17T16:58:55.074Z,23.92
2018-09-17T17:01:30.648Z,23.79
2018-09-17T17:04:05.270Z,23.62
2018-09-17T17:06:40.089Z,23.46
2018-09-17T17:09:14.579Z,23.35
2018-09-17T17:11:49.279Z,23.18
2018-09-17T17:14:24.077Z,23.05
2018-09-17T17:16:58.695Z,22.88
2018-09-17T17:19:33.411Z,22.78
2018-09-17T17:22:08.096Z,22.65
2018-09-17T17:24:42.973Z,22.64
2018-09-17T17:27:17.232Z,22.57
2018-09-17T17:29:52.677Z,22.51
2018-09-17T17:32:27.548Z,22.39
2018-09-17T17:35:01.888Z,22.31
2018-09-17T17:37:36.941Z,22.20
2018-09-17T17:40:12.306Z,22.09
2018-09-17T17:42:46.983Z,21.97
2018-09-17T17:45:22.138Z,21.94
2018-09-17T17:47:57.534Z,21.85
2018-09-17T17:50:32.242Z,21.75
2018-09-17T17:53:07.241Z,21.61
2018-09-17T17:55:41.742Z,21.57
2018-09-17T17:58:16.331Z,21.51
2018-09-17T18:00:52.985Z,21.40
2018-09-17T18:03:28.724Z,21.31
2018-09-17T18:06:03.388Z,21.21
2018-09-17T18:08:38.978Z,21.14
2018-09-17T18:11:16.517Z,21.06
2018-09-17T18:16:55.076Z,20.91
2018-09-17T18:19:29.632Z,20.83
2018-09-17T18:22:04.719Z,20.86
2018-09-17T18:24:39.418Z,20.80
2018-09-17T18:27:14.260Z,20.71
2018-09-17T18:29:48.822Z,20.77
2018-09-17T18:32:23.408Z,20.65
2018-09-17T18:34:57.939Z,20.58
2018-09-17T18:37:32.634Z,20.51
2018-09-17T18:40:07.887Z,20.43
2018-09-17T18:42:42.271Z,20.46
2018-09-17T18:45:17.139Z,20.37
2018-09-17T18:47:52.148Z,20.27
2018-09-17T18:50:26.840Z,20.23
2018-09-17T18:53:01.661Z,20.15
2018-09-17T18:55:36.333Z,20.09
2018-09-17T18:58:10.967Z,20.03
2018-09-17T19:00:47.519Z,19.99
2018-09-17T19:03:22.143Z,19.93
2018-09-17T19:05:56.952Z,19.87
2018-09-17T19:08:31.692Z,20.08
2018-09-17T19:11:06.832Z,20.00
2018-09-17T19:13:53.346Z,19.96
2018-09-17T19:16:33.147Z,19.91
2018-09-17T19:19:08.876Z,19.80
2018-09-17T19:21:49.219Z,19.71
2018-09-17T19:24:23.924Z,19.67
2018-09-17T19:26:58.775Z,19.59
2018-09-17T19:29:33.383Z,19.53
2018-09-17T19:32:08.228Z,19.46
2018-09-17T19:34:43.377Z,19.41
2018-09-17T19:38:26.709Z,19.57
2018-09-17T19:41:02.168Z,19.38
2018-09-17T19:43:39.593Z,19.30
2018-09-17T19:46:17.129Z,19.28
2018-09-17T19:48:52.318Z,19.18
2018-09-17T19:51:32.331Z,19.21
2018-09-17T19:54:06.871Z,19.14
2018-09-17T19:56:42.910Z,19.09
2018-09-17T19:59:23.031Z,19.03
2018-09-17T20:01:58.492Z,18.96
2018-09-17T20:04:42.264Z,18.91
2018-09-17T20:07:16.768Z,18.84
2018-09-17T20:10:00.973Z,18.79
2018-09-17T20:12:35.857Z,18.70
2018-09-17T20:15:10.740Z,18.65
2018-09-17T20:17:48.233Z,18.63
2018-09-17T20:20:23.426Z,18.58
2018-09-17T20:22:59.063Z,18.62
2018-09-17T20:25:33.981Z,18.60
2018-09-17T20:28:08.389Z,18.56
2018-09-17T20:30:43.924Z,18.49
2018-09-17T20:33:18.927Z,18.44
2018-09-17T20:35:53.480Z,18.38
2018-09-17T20:38:28.137Z,18.37
2018-09-17T20:41:03.469Z,18.29
2018-09-17T20:43:38.071Z,18.32
2018-09-17T20:46:12.911Z,18.26
2018-09-17T20:48:48.138Z,18.23
2018-09-17T20:51:22.768Z,18.21
2018-09-17T20:53:57.504Z,18.23
2018-09-17T20:56:32.073Z,18.18
2018-09-17T20:59:13.156Z,18.14
2018-09-17T21:01:47.915Z,18.12
2018-09-17T21:04:22.529Z,18.14
2018-09-17T21:06:56.987Z,18.15
2018-09-17T21:09:32.011Z,18.18
2018-09-17T21:12:06.906Z,18.16
2018-09-17T21:14:41.583Z,18.18
2018-09-17T21:17:16.373Z,18.14
2018-09-17T21:19:51.820Z,18.07
2018-09-17T21:22:26.800Z,18.01
2018-09-17T21:25:01.888Z,17.97
2018-09-17T21:27:36.976Z,17.96
2018-09-17T21:30:12.056Z,17.89
2018-09-17T21:32:46.935Z,17.87
2018-09-17T21:35:22.052Z,17.83
2018-09-17T21:37:57.538Z,17.82
2018-09-17T21:40:32.491Z,17.81
2018-09-17T21:43:07.180Z,17.73
2018-09-17T21:45:41.704Z,17.64
2018-09-17T21:48:16.340Z,17.53
2018-09-17T21:50:51.299Z,17.45
2018-09-17T21:53:25.805Z,17.38
2018-09-17T21:56:00.607Z,17.35
2018-09-17T21:58:35.082Z,17.42
2018-09-17T22:01:10.608Z,17.39
2018-09-17T22:03:45.191Z,17.32
2018-09-17T22:06:19.855Z,17.29
2018-09-17T22:08:54.160Z,17.33
2018-09-17T22:11:28.679Z,17.26
2018-09-17T22:14:03.329Z,17.20
2018-09-17T22:16:37.875Z,17.20
2018-09-17T22:19:12.388Z,17.16
2018-09-17T22:21:47.651Z,17.16
2018-09-17T22:24:22.294Z,17.14
2018-09-17T22:26:59.276Z,17.12
2018-09-17T22:29:33.751Z,17.12
2018-09-17T22:32:08.548Z,17.08
2018-09-17T22:34:44.245Z,17.02
2018-09-17T22:37:18.532Z,16.99
2018-09-17T22:39:53.259Z,16.94
2018-09-17T22:42:28.331Z,16.98
2018-09-17T22:45:02.743Z,16.95
2018-09-17T22:47:37.184Z,16.89
2018-09-17T22:50:11.743Z,16.85
2018-09-17T22:52:46.496Z,16.82
2018-09-17T22:55:21.052Z,16.78
2018-09-17T22:57:56.003Z,16.74
2018-09-17T23:00:30.339Z,16.67
2018-09-17T23:03:05.207Z,16.66
2018-09-17T23:05:40.050Z,16.66
2018-09-17T23:08:14.564Z,16.62
2018-09-17T23:10:49.177Z,16.61
2018-09-17T23:13:23.604Z,16.62
2018-09-17T23:15:58.531Z,16.56
2018-09-17T23:18:32.899Z,16.56
2018-09-17T23:21:07.785Z,16.53
2018-09-17T23:23:42.279Z,16.49
2018-09-17T23:26:17.573Z,16.49
2018-09-17T23:28:51.954Z,16.42
2018-09-17T23:31:26.717Z,16.40
2018-09-17T23:34:01.632Z,16.42
2018-09-17T23:36:36.063Z,16.39
2018-09-17T23:39:11.574Z,16.33
2018-09-17T23:41:46.173Z,16.27
2018-09-17T23:44:20.483Z,16.28
2018-09-17T23:46:55.431Z,16.26
2018-09-17T23:49:29.892Z,16.24
2018-09-17T23:52:04.615Z,16.24
2018-09-17T23:54:39.388Z,16.23
2018-09-17T23:57:13.956Z,16.21
2018-09-17T23:59:48.687Z,16.22
